Time;durP1;ratioP1;P1;durP2;ratioP2;P2;SDS_P1;SDS_P2;PMS_P1;PMS_P2;Temp;Humidity;BMP_temperature;BMP_pressure;BME280_temperature;BME280_humidity;BME280_pressure;Samples;Min_cycle;Max_cycle;Signal;HPM_P1;HPM_P2
2021/01/07 00:02:25;;;;;;;20.00;15.40;;;-1.30;77.20;;;;;;5160820;28;20058;-73
2021/01/07 00:04:56;;;;;;;17.40;14.65;;;-1.30;77.10;;;;;;5167980;28;20503;-73
2021/01/07 00:07:27;;;;;;;17.50;14.13;;;-1.30;77.00;;;;;;5164369;28;20065;-74
2021/01/07 00:09:59;;;;;;;18.75;14.77;;;-1.30;76.80;;;;;;5153086;28;20940;-74
2021/01/07 00:12:31;;;;;;;18.17;15.02;;;-1.30;77.00;;;;;;5165767;28;20543;-73
2021/01/07 00:15:04;;;;;;;21.88;16.33;;;-1.30;76.80;;;;;;5163071;28;20076;-75
2021/01/07 00:17:35;;;;;;;18.15;15.63;;;-1.40;76.80;;;;;;5160317;28;20058;-75
2021/01/07 00:20:10;;;;;;;19.45;15.93;;;-1.30;77.00;;;;;;5160505;28;20045;-73
2021/01/07 00:22:41;;;;;;;19.05;14.80;;;-1.30;77.00;;;;;;5160332;28;20113;-74
2021/01/07 00:25:12;;;;;;;19.30;15.77;;;-1.30;77.00;;;;;;5162447;28;20038;-74
2021/01/07 00:27:44;;;;;;;18.20;14.82;;;-1.30;77.00;;;;;;5158346;28;20054;-74
2021/01/07 00:30:16;;;;;;;15.70;13.95;;;-1.30;77.00;;;;;;5158715;28;20100;-74
2021/01/07 00:32:50;;;;;;;18.42;14.55;;;-1.30;77.00;;;;;;5166420;28;20173;-74
2021/01/07 00:35:22;;;;;;;17.58;13.88;;;-1.30;77.00;;;;;;5161528;28;20145;-74
2021/01/07 00:37:54;;;;;;;17.27;14.60;;;-1.30;76.70;;;;;;5162231;28;20074;-74
2021/01/07 00:40:25;;;;;;;17.73;14.45;;;-1.30;76.50;;;;;;5164613;28;20571;-74
2021/01/07 00:42:57;;;;;;;17.15;13.80;;;-1.20;76.40;;;;;;5166248;28;20053;-74
2021/01/07 00:45:29;;;;;;;19.55;14.77;;;-1.20;76.30;;;;;;5161291;28;20077;-74
2021/01/07 00:48:01;;;;;;;16.45;13.77;;;-1.20;76.40;;;;;;5164966;28;20035;-74
2021/01/07 00:50:33;;;;;;;16.70;13.93;;;-1.20;76.30;;;;;;5163592;28;20119;-74
2021/01/07 00:53:05;;;;;;;18.80;14.20;;;-1.20;76.60;;;;;;5161607;28;20050;-74
2021/01/07 00:55:37;;;;;;;16.30;14.20;;;-1.20;76.60;;;;;;5162415;28;20132;-74
2021/01/07 00:58:11;;;;;;;17.17;14.40;;;-1.20;76.40;;;;;;5151542;28;20034;-73
2021/01/07 01:00:43;;;;;;;18.05;14.32;;;-1.20;76.40;;;;;;5167744;28;20046;-74
2021/01/07 01:03:15;;;;;;;17.15;13.45;;;-1.20;76.40;;;;;;5168741;28;20100;-74
2021/01/07 01:05:46;;;;;;;17.00;14.38;;;-1.20;76.10;;;;;;5148124;28;20077;-73
2021/01/07 01:08:19;;;;;;;17.95;14.07;;;-1.10;76.10;;;;;;5166818;28;20551;-74
2021/01/07 01:10:50;;;;;;;16.27;13.90;;;-1.10;76.10;;;;;;5168774;28;20629;-74
2021/01/07 01:13:22;;;;;;;17.85;15.18;;;-1.10;76.00;;;;;;5167988;28;20038;-74
2021/01/07 01:15:54;;;;;;;17.17;13.95;;;-1.10;76.20;;;;;;5148139;28;20491;-74
2021/01/07 01:18:25;;;;;;;16.45;13.55;;;-1.10;76.40;;;;;;5168055;28;20061;-74
2021/01/07 01:20:57;;;;;;;18.63;14.43;;;-1.20;76.30;;;;;;5167337;28;20069;-73
2021/01/07 01:23:28;;;;;;;17.20;14.93;;;-1.20;76.60;;;;;;5165587;28;20046;-73
2021/01/07 01:26:00;;;;;;;17.40;14.55;;;-1.30;76.60;;;;;;5164696;28;20046;-73
2021/01/07 01:28:31;;;;;;;15.40;13.50;;;-1.30;76.70;;;;;;5162953;28;20808;-73
2021/01/07 01:31:02;;;;;;;16.70;14.07;;;-1.30;76.60;;;;;;5168182;28;20046;-74
2021/01/07 01:33:35;;;;;;;17.02;14.07;;;-1.40;76.60;;;;;;5163295;28;20050;-74
2021/01/07 01:36:07;;;;;;;17.13;13.85;;;-1.40;76.90;;;;;;5163918;28;20941;-74
2021/01/07 01:38:38;;;;;;;17.95;14.18;;;-1.50;76.90;;;;;;5170413;28;20042;-73
2021/01/07 01:41:10;;;;;;;15.38;13.40;;;-1.60;76.50;;;;;;5165658;28;20096;-73
2021/01/07 01:43:42;;;;;;;15.30;12.95;;;-1.60;76.10;;;;;;5168318;28;20042;-73
2021/01/07 01:46:13;;;;;;;16.98;13.32;;;-1.60;76.30;;;;;;5156517;28;20034;-73
2021/01/07 01:48:44;;;;;;;15.05;13.07;;;-1.70;76.20;;;;;;5164168;28;21095;-74
2021/01/07 01:51:16;;;;;;;17.58;14.30;;;-1.80;76.10;;;;;;5133320;28;20042;-74
2021/01/07 01:53:47;;;;;;;15.80;13.60;;;-1.80;76.70;;;;;;5174392;28;20050;-74
2021/01/07 01:56:20;;;;;;;16.15;13.70;;;-1.90;76.40;;;;;;5152233;28;20054;-74
2021/01/07 01:58:52;;;;;;;16.52;13.93;;;-1.90;76.60;;;;;;5148402;28;20685;-74
2021/01/07 02:01:24;;;;;;;16.15;13.05;;;-1.90;77.10;;;;;;5167690;28;20452;-72
2021/01/07 02:03:56;;;;;;;16.33;13.10;;;-1.90;77.20;;;;;;5155469;28;20026;-73
2021/01/07 02:06:29;;;;;;;14.98;13.18;;;-1.90;77.00;;;;;;5143218;28;20129;-73
2021/01/07 02:09:04;;;;;;;15.77;13.52;;;-1.90;77.00;;;;;;5167028;28;20045;-73
2021/01/07 02:11:36;;;;;;;15.75;12.75;;;-1.90;77.00;;;;;;5165591;28;20504;-73
2021/01/07 02:14:07;;;;;;;14.38;12.88;;;-1.90;77.20;;;;;;5168210;28;20064;-73
2021/01/07 02:16:39;;;;;;;15.00;12.75;;;-1.90;77.30;;;;;;5168194;28;20042;-73
2021/01/07 02:19:10;;;;;;;15.45;13.07;;;-1.90;77.50;;;;;;5166783;28;20049;-73
2021/01/07 02:21:42;;;;;;;15.68;12.90;;;-1.90;77.60;;;;;;5164610;28;20388;-72
2021/01/07 02:24:14;;;;;;;13.98;11.95;;;-1.90;77.30;;;;;;5164809;28;20637;-72
2021/01/07 02:26:45;;;;;;;15.02;12.07;;;-1.90;76.80;;;;;;5163021;28;20104;-73
2021/01/07 02:29:17;;;;;;;16.50;12.82;;;-1.90;76.60;;;;;;5164529;28;20050;-72
2021/01/07 02:31:48;;;;;;;15.07;12.85;;;-2.00;76.90;;;;;;5164217;28;20045;-73
2021/01/07 02:34:20;;;;;;;14.32;12.77;;;-2.10;77.70;;;;;;5166387;28;20109;-73
2021/01/07 02:36:51;;;;;;;14.27;12.77;;;-2.00;78.00;;;;;;5164610;28;20046;-73
2021/01/07 02:39:23;;;;;;;14.20;12.60;;;-2.00;78.00;;;;;;5167708;28;20737;-73
2021/01/07 02:41:55;;;;;;;14.10;12.60;;;-2.00;78.10;;;;;;5162119;28;20127;-72
2021/01/07 02:44:27;;;;;;;15.18;12.75;;;-2.00;78.30;;;;;;5163165;28;20038;-72
2021/01/07 02:46:58;;;;;;;15.95;12.88;;;-2.10;78.40;;;;;;5164385;28;20045;-73
2021/01/07 02:49:30;;;;;;;15.63;13.25;;;-2.10;78.40;;;;;;5162025;28;20508;-73
2021/01/07 02:52:01;;;;;;;13.82;12.30;;;-2.10;78.50;;;;;;5163095;28;20119;-72
2021/01/07 02:54:32;;;;;;;15.32;12.70;;;-2.10;78.50;;;;;;5164240;28;20377;-74
2021/01/07 02:57:05;;;;;;;13.18;11.57;;;-2.00;78.40;;;;;;5164396;28;20042;-73
2021/01/07 02:59:37;;;;;;;14.65;12.20;;;-2.00;78.40;;;;;;5163772;28;20049;-73
2021/01/07 03:02:09;;;;;;;16.02;13.30;;;-1.90;78.30;;;;;;5163328;28;20069;-73
2021/01/07 03:04:40;;;;;;;15.00;13.10;;;-1.90;78.10;;;;;;5161930;28;20033;-73
2021/01/07 03:07:12;;;;;;;15.05;13.40;;;-1.90;78.10;;;;;;5145438;28;20042;-72
2021/01/07 03:09:44;;;;;;;14.75;12.55;;;-1.90;77.90;;;;;;5165020;28;20046;-72
2021/01/07 03:12:18;;;;;;;14.15;12.45;;;-1.80;77.60;;;;;;5166055;28;20053;-72
2021/01/07 03:14:49;;;;;;;16.17;13.48;;;-1.70;77.40;;;;;;5152253;28;20054;-74
2021/01/07 03:17:21;;;;;;;14.02;12.38;;;-1.70;77.20;;;;;;5164020;28;20062;-74
2021/01/07 03:19:52;;;;;;;15.73;12.98;;;-1.70;77.50;;;;;;5162866;28;20034;-74
2021/01/07 03:22:24;;;;;;;15.52;13.68;;;-1.70;77.00;;;;;;5159970;28;20093;-73
2021/01/07 03:24:55;;;;;;;14.10;12.48;;;-1.70;76.70;;;;;;5165869;28;20042;-73
2021/01/07 03:27:27;;;;;;;15.57;13.10;;;-1.70;76.50;;;;;;5163612;28;20057;-74
2021/01/07 03:29:58;;;;;;;15.32;13.30;;;-1.60;76.40;;;;;;5160789;28;20050;-73
2021/01/07 03:32:29;;;;;;;13.60;12.13;;;-1.60;76.50;;;;;;5163362;28;20057;-74
2021/01/07 03:35:03;;;;;;;14.48;12.82;;;-1.60;77.20;;;;;;5167393;28;20034;-73
2021/01/07 03:37:34;;;;;;;15.77;13.18;;;-1.60;76.40;;;;;;5163774;28;20577;-74
2021/01/07 03:40:06;;;;;;;15.93;13.10;;;-1.60;76.10;;;;;;5165037;28;20061;-75
2021/01/07 03:42:38;;;;;;;13.68;12.27;;;-1.50;76.00;;;;;;5163544;28;20412;-74
2021/01/07 03:45:10;;;;;;;13.15;11.75;;;-1.60;75.90;;;;;;5162332;28;21054;-74
2021/01/07 03:47:42;;;;;;;14.82;12.60;;;-1.60;75.70;;;;;;5164828;28;20422;-75
2021/01/07 03:50:13;;;;;;;14.05;12.52;;;-1.50;75.90;;;;;;5165418;28;20050;-75
2021/01/07 03:52:45;;;;;;;14.05;12.55;;;-1.60;75.70;;;;;;5166951;28;20496;-74
2021/01/07 03:55:17;;;;;;;14.10;11.82;;;-1.50;75.70;;;;;;5166448;28;20045;-74
2021/01/07 03:57:48;;;;;;;13.95;12.20;;;-1.50;75.80;;;;;;5163409;28;20050;-75
2021/01/07 04:00:20;;;;;;;14.50;12.32;;;-1.50;75.80;;;;;;5167123;28;20038;-75
2021/01/07 04:02:52;;;;;;;14.10;12.32;;;-1.60;75.70;;;;;;5162787;28;20034;-75
2021/01/07 04:05:23;;;;;;;14.57;12.68;;;-1.60;75.90;;;;;;5164170;28;20050;-75
2021/01/07 04:07:55;;;;;;;14.43;12.50;;;-1.50;76.00;;;;;;5164738;28;20025;-74
2021/01/07 04:10:26;;;;;;;14.55;12.93;;;-1.60;76.20;;;;;;5164606;28;20053;-74
2021/01/07 04:12:58;;;;;;;15.18;13.20;;;-1.60;75.90;;;;;;5162271;28;20668;-75
2021/01/07 04:15:29;;;;;;;15.90;13.85;;;-1.60;76.10;;;;;;5169415;28;20124;-74
2021/01/07 04:18:01;;;;;;;16.35;12.30;;;-1.60;76.20;;;;;;5154935;28;20046;-75
2021/01/07 04:20:32;;;;;;;14.30;12.48;;;-1.60;76.10;;;;;;5167900;28;20054;-75
2021/01/07 04:23:03;;;;;;;17.73;14.48;;;-1.60;76.10;;;;;;5154260;28;20073;-75
2021/01/07 04:25:35;;;;;;;14.45;12.98;;;-1.60;76.20;;;;;;5168879;28;20341;-75
2021/01/07 04:28:06;;;;;;;14.43;12.80;;;-1.60;76.00;;;;;;5139890;28;20057;-75
2021/01/07 04:30:38;;;;;;;13.82;12.38;;;-1.60;76.10;;;;;;5167107;28;20053;-74
2021/01/07 04:33:10;;;;;;;13.93;12.43;;;-1.60;76.10;;;;;;5154596;28;20061;-74
2021/01/07 04:35:42;;;;;;;14.95;13.02;;;-1.60;76.20;;;;;;5166910;28;20046;-73
2021/01/07 04:38:13;;;;;;;14.20;12.70;;;-1.60;76.30;;;;;;5156532;28;20038;-74
2021/01/07 04:40:45;;;;;;;14.63;13.10;;;-1.70;76.30;;;;;;5167375;28;20342;-75
2021/01/07 04:43:16;;;;;;;13.55;12.07;;;-1.70;76.70;;;;;;5164842;28;20173;-74
2021/01/07 04:45:48;;;;;;;13.43;12.02;;;-1.70;76.60;;;;;;5151770;28;20173;-75
2021/01/07 04:48:20;;;;;;;14.25;12.27;;;-1.70;76.30;;;;;;5163809;28;20145;-75
2021/01/07 04:50:52;;;;;;;14.80;13.15;;;-1.70;76.40;;;;;;5146945;28;20174;-74
2021/01/07 04:53:23;;;;;;;14.63;12.27;;;-1.60;76.40;;;;;;5165803;28;20050;-74
2021/01/07 04:55:55;;;;;;;14.57;12.98;;;-1.70;76.50;;;;;;5166391;28;20053;-73
2021/01/07 04:58:26;;;;;;;16.90;13.93;;;-1.70;76.40;;;;;;5169113;28;20515;-75
2021/01/07 05:00:58;;;;;;;15.02;13.18;;;-1.70;76.30;;;;;;5166079;28;20407;-73
2021/01/07 05:03:34;;;;;;;14.40;12.88;;;-1.70;76.30;;;;;;5167006;28;20640;-74
2021/01/07 05:06:05;;;;;;;15.38;13.20;;;-1.70;76.30;;;;;;5167810;28;20050;-73
2021/01/07 05:08:37;;;;;;;14.77;13.27;;;-1.70;76.00;;;;;;5169241;28;20053;-73
2021/01/07 05:11:09;;;;;;;16.38;14.00;;;-1.70;76.10;;;;;;5166139;28;20752;-72
2021/01/07 05:13:42;;;;;;;16.73;13.50;;;-1.70;76.00;;;;;;5167912;28;20511;-72
2021/01/07 05:16:21;;;;;;;15.05;13.45;;;-1.70;76.10;;;;;;5153454;28;20041;-73
2021/01/07 05:18:53;;;;;;;14.75;13.07;;;-1.70;76.20;;;;;;5149225;28;20063;-73
2021/01/07 05:21:25;;;;;;;15.38;12.88;;;-1.70;76.20;;;;;;5167742;28;20050;-73
2021/01/07 05:23:58;;;;;;;14.05;12.65;;;-1.70;76.30;;;;;;5167312;28;20038;-73
2021/01/07 05:26:30;;;;;;;14.30;12.77;;;-1.70;76.10;;;;;;5167291;28;20050;-73
2021/01/07 05:29:02;;;;;;;14.80;13.30;;;-1.70;76.00;;;;;;5167794;28;20558;-73
2021/01/07 05:31:33;;;;;;;14.80;12.75;;;-1.70;75.90;;;;;;5167210;28;20502;-76
2021/01/07 05:34:05;;;;;;;14.90;13.30;;;-1.70;75.70;;;;;;5163549;28;20050;-74
2021/01/07 05:36:39;;;;;;;15.43;13.07;;;-1.60;75.40;;;;;;5166958;28;20100;-73
2021/01/07 05:39:10;;;;;;;14.70;13.20;;;-1.60;75.40;;;;;;5150988;28;20050;-73
2021/01/07 05:41:42;;;;;;;15.70;13.88;;;-1.70;75.50;;;;;;5168622;28;20060;-73
2021/01/07 05:44:13;;;;;;;15.07;12.98;;;-1.70;75.50;;;;;;5152683;28;20039;-73
2021/01/07 05:46:45;;;;;;;13.95;12.45;;;-1.70;75.20;;;;;;5166796;28;20054;-73
2021/01/07 05:49:20;;;;;;;14.45;12.95;;;-1.70;75.00;;;;;;5164811;28;20419;-75
2021/01/07 05:51:52;;;;;;;14.27;12.77;;;-1.80;75.50;;;;;;5165798;28;20439;-75
2021/01/07 05:54:25;;;;;;;14.05;12.55;;;-1.80;75.60;;;;;;5162671;28;20249;-73
2021/01/07 05:56:59;;;;;;;14.68;12.75;;;-1.80;75.80;;;;;;5152081;28;20127;-73
2021/01/07 05:59:32;;;;;;;13.73;12.23;;;-1.90;76.00;;;;;;5168202;28;20522;-73
2021/01/07 06:02:04;;;;;;;16.63;12.95;;;-2.00;76.40;;;;;;5169009;28;21713;-74
2021/01/07 06:04:39;;;;;;;14.00;12.50;;;-2.10;76.90;;;;;;5168240;28;20173;-74
2021/01/07 06:07:12;;;;;;;12.73;11.43;;;-2.10;77.00;;;;;;5165283;28;20105;-73
2021/01/07 06:09:48;;;;;;;13.52;12.00;;;-2.20;76.90;;;;;;5165827;28;20093;-72
2021/01/07 06:12:19;;;;;;;13.73;11.88;;;-2.20;76.90;;;;;;5163617;28;20045;-75
2021/01/07 06:14:51;;;;;;;13.15;11.75;;;-2.10;77.10;;;;;;5152106;28;20096;-74
2021/01/07 06:17:23;;;;;;;12.52;11.23;;;-2.10;76.80;;;;;;5164425;28;20663;-72
2021/01/07 06:19:55;;;;;;;12.95;10.95;;;-2.10;76.70;;;;;;5150134;28;20049;-73
2021/01/07 06:22:26;;;;;;;13.23;11.82;;;-2.10;76.90;;;;;;5162981;28;20560;-73
2021/01/07 06:24:58;;;;;;;13.55;11.38;;;-2.10;76.90;;;;;;5160820;28;20432;-73
2021/01/07 06:27:30;;;;;;;13.38;12.05;;;-2.20;76.90;;;;;;5165071;28;20038;-74
2021/01/07 06:30:10;;;;;;;17.10;15.30;;;-2.10;77.00;;;;;;5165328;28;20437;-74
2021/01/07 06:33:00;;;;;;;15.85;14.25;;;-2.10;77.00;;;;;;5162832;28;20056;-73
2021/01/07 06:35:42;;;;;;;16.38;13.40;;;-2.10;76.90;;;;;;5161580;28;20050;-75
2021/01/07 06:38:25;;;;;;;15.30;13.05;;;-2.00;76.50;;;;;;5163959;28;20054;-75
2021/01/07 06:40:58;;;;;;;14.80;13.18;;;-2.00;76.30;;;;;;5162842;28;20038;-75
2021/01/07 06:43:30;;;;;;;15.48;13.88;;;-2.00;76.10;;;;;;5164337;28;20038;-74
2021/01/07 06:46:01;;;;;;;14.77;13.25;;;-2.00;76.00;;;;;;5163283;28;20043;-75
2021/01/07 06:48:35;;;;;;;14.45;12.57;;;-2.00;75.90;;;;;;5164179;28;20564;-76
2021/01/07 06:51:07;;;;;;;18.35;15.35;;;-2.00;76.00;;;;;;5164314;28;20042;-75
2021/01/07 06:53:39;;;;;;;16.80;14.07;;;-2.10;76.10;;;;;;5163066;28;20411;-75
2021/01/07 06:56:16;;;;;;;16.67;13.48;;;-2.10;76.20;;;;;;5162929;28;20046;-75
2021/01/07 06:58:49;;;;;;;15.57;13.13;;;-2.10;76.10;;;;;;5163973;28;20042;-77
2021/01/07 07:01:23;;;;;;;16.83;13.82;;;-2.00;75.90;;;;;;5164224;28;20056;-77
2021/01/07 07:04:02;;;;;;;16.20;12.52;;;-2.10;76.10;;;;;;5143156;28;20049;-76
2021/01/07 07:06:42;;;;;;;16.73;12.05;;;-2.10;76.00;;;;;;5165940;28;20046;-75
2021/01/07 07:09:20;;;;;;;14.25;12.75;;;-2.10;76.80;;;;;;5166540;28;20113;-75
2021/01/07 07:11:53;;;;;;;15.82;13.68;;;-2.00;75.90;;;;;;5163912;28;20411;-76
2021/01/07 07:14:30;;;;;;;15.93;14.23;;;-2.00;75.90;;;;;;5165475;28;20487;-76
2021/01/07 07:17:11;;;;;;;14.90;11.73;;;-2.00;75.60;;;;;;5160829;28;20042;-77
2021/01/07 07:19:46;;;;;;;15.32;12.77;;;-2.00;75.80;;;;;;5164336;28;20451;-76
2021/01/07 07:22:20;;;;;;;15.48;12.98;;;-2.00;75.80;;;;;;5161788;28;20109;-77
2021/01/07 07:24:53;;;;;;;16.52;13.48;;;-2.00;75.80;;;;;;5159848;28;20073;-76
2021/01/07 07:27:48;;;;;;;13.43;11.95;;;-2.00;75.80;;;;;;5141456;28;20627;-76
2021/01/07 07:30:29;;;;;;;14.90;12.27;;;-1.90;75.80;;;;;;5160859;28;20038;-77
2021/01/07 07:33:02;;;;;;;14.60;13.10;;;-1.90;76.00;;;;;;5159422;28;20046;-76
2021/01/07 07:35:42;;;;;;;19.00;13.63;;;-1.90;76.00;;;;;;5159885;28;20053;-76
2021/01/07 07:38:13;;;;;;;16.50;13.70;;;-2.10;76.00;;;;;;5157292;28;20100;-75
2021/01/07 07:40:51;;;;;;;14.65;12.27;;;-2.10;76.30;;;;;;5161022;28;20725;-76
2021/01/07 07:43:22;;;;;;;14.15;12.40;;;-2.00;76.30;;;;;;5161774;28;20030;-76
2021/01/07 07:45:54;;;;;;;13.20;11.80;;;-2.00;76.40;;;;;;5142190;28;20042;-76
2021/01/07 07:48:27;;;;;;;14.98;12.27;;;-1.90;76.30;;;;;;5158662;28;20045;-75
2021/01/07 07:51:07;;;;;;;14.07;12.68;;;-1.90;76.00;;;;;;5163636;28;20046;-76
2021/01/07 07:53:40;;;;;;;14.48;12.60;;;-2.10;75.90;;;;;;5164438;28;20124;-75
2021/01/07 07:56:22;;;;;;;12.82;11.45;;;-2.10;76.20;;;;;;5161265;28;20045;-75
2021/01/07 07:59:05;;;;;;;13.07;11.77;;;-2.00;76.30;;;;;;5160992;28;20039;-76
2021/01/07 08:01:44;;;;;;;11.57;10.38;;;-1.90;76.20;;;;;;5162947;28;20061;-75
2021/01/07 08:04:17;;;;;;;12.00;10.80;;;-1.80;76.00;;;;;;5162696;28;20042;-75
2021/01/07 08:06:50;;;;;;;11.25;9.95;;;-1.70;76.00;;;;;;5165473;28;20094;-76
2021/01/07 08:09:22;;;;;;;12.02;10.80;;;-1.70;76.00;;;;;;5164189;28;20046;-74
2021/01/07 08:11:54;;;;;;;10.85;9.85;;;-1.70;75.70;;;;;;5168801;28;20050;-75
2021/01/07 08:14:28;;;;;;;12.00;10.80;;;-1.60;75.50;;;;;;5167132;28;20060;-75
2021/01/07 08:17:01;;;;;;;12.27;11.07;;;-1.60;75.70;;;;;;5169553;28;20050;-74
2021/01/07 08:19:35;;;;;;;13.88;12.13;;;-1.50;75.90;;;;;;5166703;28;20061;-75
2021/01/07 08:22:06;;;;;;;13.38;11.98;;;-1.50;75.60;;;;;;5165866;28;20077;-75
2021/01/07 08:24:41;;;;;;;14.77;12.20;;;-1.50;74.80;;;;;;5167006;28;20105;-75
2021/01/07 08:27:16;;;;;;;14.98;12.48;;;-1.50;75.20;;;;;;5168357;28;20551;-73
2021/01/07 08:29:55;;;;;;;15.40;13.30;;;-1.50;75.00;;;;;;5167477;28;20046;-73
2021/01/07 08:32:43;;;;;;;14.63;12.82;;;-1.40;75.10;;;;;;5167112;28;20042;-73
2021/01/07 08:35:16;;;;;;;15.57;13.10;;;-1.40;75.50;;;;;;5169230;28;20050;-73
2021/01/07 08:37:48;;;;;;;15.95;13.38;;;-1.30;75.70;;;;;;5168708;28;20038;-72
2021/01/07 08:40:21;;;;;;;17.63;15.02;;;-1.20;75.60;;;;;;5165425;28;20057;-73
2021/01/07 08:42:55;;;;;;;15.70;14.00;;;-1.10;75.10;;;;;;5169714;28;20039;-73
2021/01/07 08:45:30;;;;;;;15.80;14.02;;;-1.00;74.70;;;;;;5167134;28;20041;-73
2021/01/07 08:48:08;;;;;;;16.95;14.68;;;-1.00;74.50;;;;;;5167456;28;20088;-73
2021/01/07 08:50:39;;;;;;;16.13;14.45;;;-0.90;74.50;;;;;;5166793;28;20041;-73
2021/01/07 08:53:14;;;;;;;16.10;14.40;;;-0.90;74.00;;;;;;5169734;28;20038;-73
2021/01/07 08:55:51;;;;;;;14.77;13.15;;;-0.90;74.30;;;;;;5166068;28;20050;-74
2021/01/07 08:58:25;;;;;;;15.80;14.20;;;-0.80;75.10;;;;;;5146256;28;20548;-73
2021/01/07 09:00:56;;;;;;;17.02;14.38;;;-0.70;74.50;;;;;;5166029;28;20504;-73
2021/01/07 09:03:36;;;;;;;15.95;13.73;;;-0.60;74.40;;;;;;5166900;28;20070;-73
2021/01/07 09:06:08;;;;;;;15.85;13.95;;;-0.50;73.90;;;;;;5165167;28;20061;-73
2021/01/07 09:08:40;;;;;;;14.07;12.68;;;-0.40;74.10;;;;;;5167524;28;20637;-73
2021/01/07 09:11:30;;;;;;;14.45;13.05;;;-0.30;73.70;;;;;;5168474;28;20240;-72
2021/01/07 09:14:03;;;;;;;23.27;19.15;;;-0.20;72.50;;;;;;5156877;28;20112;-73
2021/01/07 09:16:35;;;;;;;17.05;15.32;;;-0.10;72.40;;;;;;5168076;28;20074;-74
2021/01/07 09:19:07;;;;;;;14.95;13.35;;;0.10;72.60;;;;;;5165120;28;20046;-73
2021/01/07 09:21:38;;;;;;;16.05;14.30;;;0.10;70.50;;;;;;5164454;28;20062;-75
2021/01/07 09:24:10;;;;;;;17.23;14.95;;;0.30;71.80;;;;;;5140486;28;20386;-74
2021/01/07 09:26:43;;;;;;;16.90;15.10;;;0.40;70.20;;;;;;5167445;28;20054;-74
2021/01/07 09:29:14;;;;;;;17.05;15.25;;;0.50;70.30;;;;;;5166122;28;20050;-73
2021/01/07 09:31:46;;;;;;;17.77;15.15;;;0.70;70.40;;;;;;5166115;28;20050;-74
2021/01/07 09:34:17;;;;;;;17.00;14.27;;;0.80;68.50;;;;;;5167072;28;20045;-74
2021/01/07 09:36:48;;;;;;;16.05;14.45;;;0.90;69.70;;;;;;5166954;28;20042;-74
2021/01/07 09:39:20;;;;;;;14.88;13.38;;;1.00;69.90;;;;;;5165147;28;20058;-74
2021/01/07 09:41:52;;;;;;;14.77;13.32;;;1.10;69.00;;;;;;5163414;28;20074;-73
2021/01/07 09:44:23;;;;;;;13.93;12.57;;;1.20;67.30;;;;;;5167290;28;20132;-73
2021/01/07 09:46:57;;;;;;;14.15;12.75;;;1.00;66.00;;;;;;5148718;28;20052;-73
2021/01/07 09:49:28;;;;;;;14.93;13.50;;;0.80;67.20;;;;;;5168868;28;20599;-73
2021/01/07 09:52:00;;;;;;;15.25;13.65;;;0.90;67.40;;;;;;5165291;28;20124;-74
2021/01/07 09:54:32;;;;;;;14.15;12.75;;;0.80;67.30;;;;;;5166314;28;20116;-74
2021/01/07 09:57:04;;;;;;;15.07;13.50;;;0.70;67.30;;;;;;5163409;28;20077;-76
2021/01/07 09:59:35;;;;;;;15.50;13.85;;;0.90;69.20;;;;;;5164517;28;20042;-75
2021/01/07 10:02:11;;;;;;;15.10;13.48;;;1.00;65.20;;;;;;5167702;28;20100;-75
2021/01/07 10:04:44;;;;;;;15.00;13.40;;;1.20;67.70;;;;;;5163914;28;20042;-75
2021/01/07 10:07:15;;;;;;;15.80;14.05;;;1.30;67.90;;;;;;5166470;28;20134;-74
2021/01/07 10:09:47;;;;;;;17.40;15.05;;;1.40;67.20;;;;;;5165814;28;20093;-75
2021/01/07 10:12:18;;;;;;;15.27;13.77;;;1.60;66.50;;;;;;5161507;28;20034;-76
2021/01/07 10:14:50;;;;;;;15.10;13.55;;;1.70;65.60;;;;;;5168486;28;20157;-75
2021/01/07 10:17:21;;;;;;;15.02;13.48;;;1.70;63.70;;;;;;5166812;28;20054;-74
2021/01/07 10:19:53;;;;;;;15.15;13.65;;;1.60;64.10;;;;;;5166114;28;20553;-73
2021/01/07 10:22:25;;;;;;;14.95;13.35;;;1.70;66.30;;;;;;5166772;28;20448;-73
2021/01/07 10:24:57;;;;;;;14.63;12.52;;;1.80;65.00;;;;;;5145332;28;20041;-73
2021/01/07 10:27:29;;;;;;;14.30;12.80;;;1.90;64.60;;;;;;5160536;28;20046;-74
2021/01/07 10:30:01;;;;;;;14.65;13.15;;;2.00;64.80;;;;;;5155349;28;20058;-74
2021/01/07 10:32:34;;;;;;;13.82;12.50;;;2.10;65.80;;;;;;5164780;28;20042;-74
2021/01/07 10:35:06;;;;;;;12.82;11.65;;;2.30;64.50;;;;;;5169054;28;20045;-73
2021/01/07 10:37:39;;;;;;;13.13;11.93;;;2.40;60.80;;;;;;5166835;28;20386;-72
2021/01/07 10:40:14;;;;;;;12.57;11.40;;;2.30;60.80;;;;;;5167249;28;20539;-73
2021/01/07 10:42:48;;;;;;;12.48;11.32;;;2.40;61.80;;;;;;5168070;28;20048;-72
2021/01/07 10:45:20;;;;;;;12.38;11.27;;;2.50;63.40;;;;;;5164234;28;20050;-73
2021/01/07 10:47:59;;;;;;;13.32;12.23;;;2.80;60.10;;;;;;5164877;28;20057;-72
2021/01/07 10:50:35;;;;;;;13.35;12.15;;;3.00;61.60;;;;;;5163861;28;20661;-73
2021/01/07 10:53:36;;;;;;;13.32;12.13;;;3.20;59.20;;;;;;5164384;28;20046;-72
2021/01/07 10:56:48;;;;;;;14.20;12.90;;;3.30;58.70;;;;;;5163638;28;20073;-73
2021/01/07 10:59:32;;;;;;;12.82;11.73;;;3.30;60.30;;;;;;5161865;28;20042;-74
2021/01/07 11:02:34;;;;;;;15.75;14.25;;;3.40;61.00;;;;;;5166591;28;20054;-74
2021/01/07 11:05:26;;;;;;;16.45;14.85;;;3.40;61.30;;;;;;5164240;28;20034;-73
2021/01/07 11:08:18;;;;;;;15.10;13.60;;;3.40;61.50;;;;;;5163358;28;20046;-70
2021/01/07 11:10:51;;;;;;;15.32;13.73;;;3.40;61.00;;;;;;5147087;28;21067;-73
2021/01/07 11:13:31;;;;;;;15.98;14.48;;;3.40;61.30;;;;;;5155406;28;20744;-73
2021/01/07 11:16:10;;;;;;;15.57;14.07;;;3.50;60.60;;;;;;5164807;28;20046;-73
2021/01/07 11:18:46;;;;;;;17.85;15.82;;;3.50;61.30;;;;;;5163509;28;20169;-73
2021/01/07 11:21:24;;;;;;;20.13;17.13;;;3.50;61.00;;;;;;5164643;28;20104;-74
2021/01/07 11:23:59;;;;;;;21.77;18.23;;;3.50;59.60;;;;;;5164878;28;20609;-72
2021/01/07 11:26:31;;;;;;;19.05;17.05;;;3.40;60.00;;;;;;5165722;28;20072;-73
2021/01/07 11:29:04;;;;;;;18.58;16.75;;;3.40;60.60;;;;;;5163163;28;20046;-74
2021/01/07 11:31:57;;;;;;;18.45;16.60;;;3.40;59.80;;;;;;5162421;28;20046;-72
2021/01/07 11:34:29;;;;;;;16.60;15.00;;;3.50;59.90;;;;;;5163495;28;20049;-74
2021/01/07 11:37:32;;;;;;;16.40;14.70;;;3.50;61.30;;;;;;5165131;28;20046;-73
2021/01/07 11:40:11;;;;;;;15.52;14.05;;;3.50;60.50;;;;;;5161004;28;20038;-73
2021/01/07 11:43:06;;;;;;;15.88;14.40;;;3.50;60.80;;;;;;5144224;28;20100;-73
2021/01/07 11:45:39;;;;;;;15.63;14.07;;;3.60;59.70;;;;;;5164754;28;20043;-74
2021/01/07 11:48:24;;;;;;;15.32;13.90;;;3.60;59.30;;;;;;5163808;28;20050;-74
2021/01/07 11:51:05;;;;;;;15.40;13.90;;;3.60;59.80;;;;;;5161928;28;20068;-73
2021/01/07 11:53:37;;;;;;;16.30;14.70;;;3.60;58.70;;;;;;5159703;28;20789;-74
2021/01/07 11:56:09;;;;;;;16.73;15.02;;;3.60;59.30;;;;;;5165759;28;20046;-73
2021/01/07 11:58:42;;;;;;;17.42;15.70;;;3.60;58.90;;;;;;5168129;28;20046;-71
2021/01/07 12:01:14;;;;;;;17.02;15.35;;;3.60;59.50;;;;;;5163792;28;20054;-72
2021/01/07 12:03:46;;;;;;;16.23;14.63;;;3.60;59.80;;;;;;5162447;28;20086;-72
2021/01/07 12:06:26;;;;;;;16.38;14.85;;;3.60;58.60;;;;;;5164348;28;20069;-74
2021/01/07 12:09:21;;;;;;;15.75;14.25;;;3.60;59.50;;;;;;5164293;28;20046;-72
2021/01/07 12:12:13;;;;;;;17.02;15.43;;;3.70;59.50;;;;;;5163049;28;20035;-72
2021/01/07 12:14:51;;;;;;;17.23;15.52;;;3.70;59.60;;;;;;5164392;28;20038;-72
2021/01/07 12:17:22;;;;;;;16.00;14.50;;;3.70;59.60;;;;;;5164625;28;20045;-73
2021/01/07 12:19:58;;;;;;;17.20;15.57;;;3.60;59.60;;;;;;5166231;28;20093;-72
2021/01/07 12:22:31;;;;;;;17.10;15.35;;;3.70;60.00;;;;;;5164874;28;20054;-74
2021/01/07 12:25:05;;;;;;;16.50;14.90;;;3.70;60.10;;;;;;5162269;28;20141;-74
2021/01/07 12:27:46;;;;;;;17.90;16.10;;;3.70;59.20;;;;;;5165531;28;20422;-74
2021/01/07 12:30:19;;;;;;;18.20;16.38;;;3.60;59.20;;;;;;5161436;28;20034;-75
2021/01/07 12:33:14;;;;;;;17.52;15.77;;;3.60;59.60;;;;;;5162994;28;20042;-74
2021/01/07 12:36:06;;;;;;;18.10;16.20;;;3.60;59.70;;;;;;5156393;28;20050;-77
2021/01/07 12:38:56;;;;;;;15.93;14.23;;;3.50;58.00;;;;;;5150621;28;20139;-74
2021/01/07 12:41:35;;;;;;;16.45;14.90;;;3.50;58.70;;;;;;5165340;28;20050;-74
2021/01/07 12:44:10;;;;;;;16.97;15.33;;;3.50;58.30;;;;;;5166160;28;20050;-74
2021/01/07 12:46:46;;;;;;;16.77;15.18;;;3.40;58.30;;;;;;5152813;28;20292;-75
2021/01/07 12:49:18;;;;;;;16.38;14.77;;;3.40;59.40;;;;;;5149153;28;20117;-74
2021/01/07 12:51:51;;;;;;;17.65;15.85;;;3.40;59.40;;;;;;5167276;28;20072;-74
2021/01/07 12:54:23;;;;;;;16.67;15.07;;;3.50;58.50;;;;;;5166602;28;20518;-76
2021/01/07 12:56:59;;;;;;;16.98;15.38;;;3.50;58.30;;;;;;5165318;28;20042;-73
2021/01/07 12:59:39;;;;;;;16.92;15.27;;;3.50;58.30;;;;;;5166345;28;20042;-74
2021/01/07 13:02:17;;;;;;;16.52;14.93;;;3.40;56.90;;;;;;5151291;28;20065;-74
2021/01/07 13:05:13;;;;;;;17.15;15.45;;;3.40;56.30;;;;;;5165786;28;20052;-74
2021/01/07 13:07:45;;;;;;;16.98;15.27;;;3.30;57.40;;;;;;5166812;28;21657;-72